sensor_id;sensor_type;location;lat;lon;timestamp;P1;durP1;ratioP1;P2;durP2;ratioP2
50309;SDS011;36207;51.850;21.698;2024-02-04T00:00:30;9.60;;;4.30;;
50309;SDS011;36207;51.850;21.698;2024-02-04T00:03:15;8.00;;;4.20;;
50309;SDS011;36207;51.850;21.698;2024-02-04T00:05:42;9.60;;;4.30;;
50309;SDS011;36207;51.850;21.698;2024-02-04T00:08:07;9.50;;;4.10;;
50309;SDS011;36207;51.850;21.698;2024-02-04T00:10:34;10.50;;;4.90;;
50309;SDS011;36207;51.850;21.698;2024-02-04T00:13:01;8.20;;;4.00;;
50309;SDS011;36207;51.850;21.698;2024-02-04T00:15:27;10.30;;;3.90;;
50309;SDS011;36207;51.850;21.698;2024-02-04T00:17:53;8.90;;;4.20;;
50309;SDS011;36207;51.850;21.698;2024-02-04T00:20:19;9.20;;;3.60;;
50309;SDS011;36207;51.850;21.698;2024-02-04T00:22:45;9.90;;;3.80;;
50309;SDS011;36207;51.850;21.698;2024-02-04T00:25:11;12.00;;;3.70;;
50309;SDS011;36207;51.850;21.698;2024-02-04T00:27:37;7.80;;;3.50;;
50309;SDS011;36207;51.850;21.698;2024-02-04T00:30:04;7.90;;;3.60;;
50309;SDS011;36207;51.850;21.698;2024-02-04T00:32:30;8.70;;;3.40;;
50309;SDS011;36207;51.850;21.698;2024-02-04T00:34:56;9.40;;;3.30;;
50309;SDS011;36207;51.850;21.698;2024-02-04T00:37:22;11.30;;;3.40;;
50309;SDS011;36207;51.850;21.698;2024-02-04T00:39:48;10.40;;;3.70;;
50309;SDS011;36207;51.850;21.698;2024-02-04T00:42:14;9.80;;;3.60;;
50309;SDS011;36207;51.850;21.698;2024-02-04T00:44:40;8.30;;;3.10;;
50309;SDS011;36207;51.850;21.698;2024-02-04T00:47:06;8.00;;;3.00;;
50309;SDS011;36207;51.850;21.698;2024-02-04T00:49:31;10.20;;;3.90;;
50309;SDS011;36207;51.850;21.698;2024-02-04T00:51:57;8.40;;;3.20;;
50309;SDS011;36207;51.850;21.698;2024-02-04T00:54:23;7.90;;;3.20;;
50309;SDS011;36207;51.850;21.698;2024-02-04T00:56:49;9.50;;;3.70;;
50309;SDS011;36207;51.850;21.698;2024-02-04T00:59:15;7.00;;;2.90;;
50309;SDS011;36207;51.850;21.698;2024-02-04T01:01:41;7.80;;;2.90;;
50309;SDS011;36207;51.850;21.698;2024-02-04T01:04:08;15.30;;;3.90;;
50309;SDS011;36207;51.850;21.698;2024-02-04T01:06:33;9.90;;;3.40;;
50309;SDS011;36207;51.850;21.698;2024-02-04T01:08:59;11.20;;;3.90;;
50309;SDS011;36207;51.850;21.698;2024-02-04T01:11:25;10.20;;;3.70;;
50309;SDS011;36207;51.850;21.698;2024-02-04T01:13:51;13.70;;;4.00;;
50309;SDS011;36207;51.850;21.698;2024-02-04T01:16:18;10.00;;;4.00;;
50309;SDS011;36207;51.850;21.698;2024-02-04T01:18:43;10.80;;;3.80;;
50309;SDS011;36207;51.850;21.698;2024-02-04T01:21:09;11.60;;;4.10;;
50309;SDS011;36207;51.850;21.698;2024-02-04T01:23:35;13.60;;;4.10;;
50309;SDS011;36207;51.850;21.698;2024-02-04T01:26:01;10.00;;;3.90;;
50309;SDS011;36207;51.850;21.698;2024-02-04T01:28:27;10.90;;;4.20;;
50309;SDS011;36207;51.850;21.698;2024-02-04T01:30:53;9.40;;;3.90;;
50309;SDS011;36207;51.850;21.698;2024-02-04T01:33:19;9.30;;;3.70;;
50309;SDS011;36207;51.850;21.698;2024-02-04T01:35:45;11.40;;;4.10;;
50309;SDS011;36207;51.850;21.698;2024-02-04T01:38:10;9.40;;;3.90;;
50309;SDS011;36207;51.850;21.698;2024-02-04T01:40:36;10.90;;;4.10;;
50309;SDS011;36207;51.850;21.698;2024-02-04T01:43:02;12.40;;;4.10;;
50309;SDS011;36207;51.850;21.698;2024-02-04T01:45:28;12.30;;;3.80;;
50309;SDS011;36207;51.850;21.698;2024-02-04T01:47:54;11.00;;;3.80;;
50309;SDS011;36207;51.850;21.698;2024-02-04T01:50:20;9.40;;;3.90;;
50309;SDS011;36207;51.850;21.698;2024-02-04T01:52:48;10.00;;;4.10;;
50309;SDS011;36207;51.850;21.698;2024-02-04T01:55:16;8.60;;;3.90;;
50309;SDS011;36207;51.850;21.698;2024-02-04T01:57:44;9.90;;;3.80;;
50309;SDS011;36207;51.850;21.698;2024-02-04T02:00:10;11.50;;;4.00;;
50309;SDS011;36207;51.850;21.698;2024-02-04T02:02:41;8.60;;;4.00;;
50309;SDS011;36207;51.850;21.698;2024-02-04T02:05:07;9.00;;;4.00;;
50309;SDS011;36207;51.850;21.698;2024-02-04T02:07:34;11.20;;;4.10;;
50309;SDS011;36207;51.850;21.698;2024-02-04T02:10:00;13.70;;;4.20;;
50309;SDS011;36207;51.850;21.698;2024-02-04T02:12:27;10.30;;;4.10;;
50309;SDS011;36207;51.850;21.698;2024-02-04T02:15:00;10.90;;;4.10;;
50309;SDS011;36207;51.850;21.698;2024-02-04T02:17:41;9.90;;;4.00;;
50309;SDS011;36207;51.850;21.698;2024-02-04T02:20:16;13.40;;;3.90;;
50309;SDS011;36207;51.850;21.698;2024-02-04T02:22:50;10.40;;;3.70;;
50309;SDS011;36207;51.850;21.698;2024-02-04T02:25:20;9.60;;;3.80;;
50309;SDS011;36207;51.850;21.698;2024-02-04T02:27:51;9.70;;;3.80;;
50309;SDS011;36207;51.850;21.698;2024-02-04T02:30:17;12.60;;;3.90;;
50309;SDS011;36207;51.850;21.698;2024-02-04T02:32:44;11.60;;;4.00;;
50309;SDS011;36207;51.850;21.698;2024-02-04T02:35:12;10.40;;;3.80;;
50309;SDS011;36207;51.850;21.698;2024-02-04T02:37:44;10.20;;;4.00;;
50309;SDS011;36207;51.850;21.698;2024-02-04T02:43:28;9.90;;;4.00;;
50309;SDS011;36207;51.850;21.698;2024-02-04T02:45:55;9.60;;;3.90;;
50309;SDS011;36207;51.850;21.698;2024-02-04T02:48:22;10.10;;;4.10;;
50309;SDS011;36207;51.850;21.698;2024-02-04T02:50:50;13.40;;;4.30;;
50309;SDS011;36207;51.850;21.698;2024-02-04T02:53:16;12.40;;;4.10;;
50309;SDS011;36207;51.850;21.698;2024-02-04T02:55:45;10.90;;;4.00;;
50309;SDS011;36207;51.850;21.698;2024-02-04T02:58:12;9.00;;;3.60;;
50309;SDS011;36207;51.850;21.698;2024-02-04T03:00:39;7.60;;;3.60;;
50309;SDS011;36207;51.850;21.698;2024-02-04T03:03:05;10.30;;;3.70;;
50309;SDS011;36207;51.850;21.698;2024-02-04T03:05:31;10.00;;;3.80;;
50309;SDS011;36207;51.850;21.698;2024-02-04T03:07:58;9.10;;;3.60;;
50309;SDS011;36207;51.850;21.698;2024-02-04T03:10:24;9.90;;;3.80;;
50309;SDS011;36207;51.850;21.698;2024-02-04T03:12:50;13.00;;;3.80;;
50309;SDS011;36207;51.850;21.698;2024-02-04T03:15:16;7.60;;;3.70;;
50309;SDS011;36207;51.850;21.698;2024-02-04T03:17:44;10.40;;;3.80;;
50309;SDS011;36207;51.850;21.698;2024-02-04T03:20:10;13.60;;;4.00;;
50309;SDS011;36207;51.850;21.698;2024-02-04T03:22:37;11.10;;;3.60;;
50309;SDS011;36207;51.850;21.698;2024-02-04T03:25:03;12.20;;;4.00;;
50309;SDS011;36207;51.850;21.698;2024-02-04T03:27:30;9.70;;;3.40;;
50309;SDS011;36207;51.850;21.698;2024-02-04T03:29:56;9.60;;;3.70;;
50309;SDS011;36207;51.850;21.698;2024-02-04T03:32:22;8.30;;;3.30;;
50309;SDS011;36207;51.850;21.698;2024-02-04T03:34:48;9.80;;;3.50;;
50309;SDS011;36207;51.850;21.698;2024-02-04T03:37:14;11.20;;;3.40;;
50309;SDS011;36207;51.850;21.698;2024-02-04T03:39:40;10.50;;;3.50;;
50309;SDS011;36207;51.850;21.698;2024-02-04T03:42:06;11.20;;;3.60;;
50309;SDS011;36207;51.850;21.698;2024-02-04T03:44:31;9.90;;;3.30;;
50309;SDS011;36207;51.850;21.698;2024-02-04T03:46:58;9.20;;;3.80;;
50309;SDS011;36207;51.850;21.698;2024-02-04T03:49:24;9.70;;;3.20;;
50309;SDS011;36207;51.850;21.698;2024-02-04T03:51:49;11.60;;;3.50;;
50309;SDS011;36207;51.850;21.698;2024-02-04T03:54:15;11.60;;;3.70;;
50309;SDS011;36207;51.850;21.698;2024-02-04T03:56:41;10.40;;;3.20;;
50309;SDS011;36207;51.850;21.698;2024-02-04T03:59:08;9.30;;;3.20;;
50309;SDS011;36207;51.850;21.698;2024-02-04T04:01:36;11.10;;;3.50;;
50309;SDS011;36207;51.850;21.698;2024-02-04T04:04:03;9.90;;;3.40;;
50309;SDS011;36207;51.850;21.698;2024-02-04T04:06:29;12.80;;;3.60;;
50309;SDS011;36207;51.850;21.698;2024-02-04T04:08:55;12.70;;;3.10;;
50309;SDS011;36207;51.850;21.698;2024-02-04T04:11:24;8.10;;;2.90;;
50309;SDS011;36207;51.850;21.698;2024-02-04T04:13:50;9.30;;;3.30;;
50309;SDS011;36207;51.850;21.698;2024-02-04T04:16:19;9.60;;;3.00;;
50309;SDS011;36207;51.850;21.698;2024-02-04T04:18:47;9.70;;;3.20;;
50309;SDS011;36207;51.850;21.698;2024-02-04T04:21:12;9.50;;;3.20;;
50309;SDS011;36207;51.850;21.698;2024-02-04T04:23:38;9.30;;;3.10;;
50309;SDS011;36207;51.850;21.698;2024-02-04T04:26:04;11.00;;;3.10;;
50309;SDS011;36207;51.850;21.698;2024-02-04T04:28:31;9.90;;;3.00;;
50309;SDS011;36207;51.850;21.698;2024-02-04T04:30:57;7.20;;;2.80;;
50309;SDS011;36207;51.850;21.698;2024-02-04T04:33:23;9.80;;;3.20;;
50309;SDS011;36207;51.850;21.698;2024-02-04T04:35:49;8.50;;;3.10;;
50309;SDS011;36207;51.850;21.698;2024-02-04T04:38:14;8.10;;;2.50;;
50309;SDS011;36207;51.850;21.698;2024-02-04T04:40:40;10.40;;;3.00;;
50309;SDS011;36207;51.850;21.698;2024-02-04T04:43:06;13.50;;;3.40;;
50309;SDS011;36207;51.850;21.698;2024-02-04T04:45:33;12.90;;;3.20;;
50309;SDS011;36207;51.850;21.698;2024-02-04T04:47:58;10.50;;;2.90;;
50309;SDS011;36207;51.850;21.698;2024-02-04T04:50:24;9.30;;;3.10;;
50309;SDS011;36207;51.850;21.698;2024-02-04T04:52:51;12.80;;;3.30;;
50309;SDS011;36207;51.850;21.698;2024-02-04T04:55:17;8.80;;;3.00;;
50309;SDS011;36207;51.850;21.698;2024-02-04T04:57:42;10.50;;;2.90;;
50309;SDS011;36207;51.850;21.698;2024-02-04T05:00:08;11.30;;;3.50;;
50309;SDS011;36207;51.850;21.698;2024-02-04T05:02:36;8.70;;;3.10;;
50309;SDS011;36207;51.850;21.698;2024-02-04T05:05:02;12.40;;;3.60;;
50309;SDS011;36207;51.850;21.698;2024-02-04T05:07:29;14.10;;;3.50;;
50309;SDS011;36207;51.850;21.698;2024-02-04T05:09:55;12.30;;;2.90;;
50309;SDS011;36207;51.850;21.698;2024-02-04T05:12:21;9.10;;;2.70;;
50309;SDS011;36207;51.850;21.698;2024-02-04T05:14:47;11.70;;;3.20;;
50309;SDS011;36207;51.850;21.698;2024-02-04T05:17:13;13.20;;;3.30;;
50309;SDS011;36207;51.850;21.698;2024-02-04T05:19:40;8.60;;;2.60;;
50309;SDS011;36207;51.850;21.698;2024-02-04T05:22:09;10.40;;;3.10;;
50309;SDS011;36207;51.850;21.698;2024-02-04T05:24:35;8.70;;;2.80;;
50309;SDS011;36207;51.850;21.698;2024-02-04T05:27:01;10.80;;;3.20;;
50309;SDS011;36207;51.850;21.698;2024-02-04T05:29:27;8.70;;;2.70;;
50309;SDS011;36207;51.850;21.698;2024-02-04T05:31:53;8.90;;;2.60;;
50309;SDS011;36207;51.850;21.698;2024-02-04T05:34:19;8.50;;;2.70;;
50309;SDS011;36207;51.850;21.698;2024-02-04T05:36:45;5.90;;;2.10;;
50309;SDS011;36207;51.850;21.698;2024-02-04T05:39:11;8.60;;;3.00;;
50309;SDS011;36207;51.850;21.698;2024-02-04T05:41:39;6.50;;;2.90;;
50309;SDS011;36207;51.850;21.698;2024-02-04T05:44:05;8.90;;;2.20;;
50309;SDS011;36207;51.850;21.698;2024-02-04T05:46:34;8.10;;;2.20;;
50309;SDS011;36207;51.850;21.698;2024-02-04T05:49:01;5.20;;;1.90;;
50309;SDS011;36207;51.850;21.698;2024-02-04T05:51:27;9.20;;;2.10;;
50309;SDS011;36207;51.850;21.698;2024-02-04T05:53:53;6.70;;;2.30;;
50309;SDS011;36207;51.850;21.698;2024-02-04T05:56:21;9.20;;;2.00;;
50309;SDS011;36207;51.850;21.698;2024-02-04T05:58:47;7.30;;;2.10;;
50309;SDS011;36207;51.850;21.698;2024-02-04T06:01:14;5.70;;;2.20;;
50309;SDS011;36207;51.850;21.698;2024-02-04T06:03:41;8.80;;;2.90;;
50309;SDS011;36207;51.850;21.698;2024-02-04T06:06:09;11.50;;;3.00;;
50309;SDS011;36207;51.850;21.698;2024-02-04T06:08:39;8.60;;;3.10;;
50309;SDS011;36207;51.850;21.698;2024-02-04T06:11:05;7.60;;;3.10;;
50309;SDS011;36207;51.850;21.698;2024-02-04T06:13:35;9.60;;;3.30;;
50309;SDS011;36207;51.850;21.698;2024-02-04T06:16:01;10.40;;;3.20;;
50309;SDS011;36207;51.850;21.698;2024-02-04T06:18:27;12.10;;;3.20;;
50309;SDS011;36207;51.850;21.698;2024-02-04T06:20:53;8.90;;;3.20;;
50309;SDS011;36207;51.850;21.698;2024-02-04T06:23:19;9.10;;;3.00;;
50309;SDS011;36207;51.850;21.698;2024-02-04T06:25:45;9.80;;;2.80;;
50309;SDS011;36207;51.850;21.698;2024-02-04T06:28:11;8.10;;;2.80;;
50309;SDS011;36207;51.850;21.698;2024-02-04T06:30:37;7.50;;;2.80;;
50309;SDS011;36207;51.850;21.698;2024-02-04T06:33:03;7.60;;;2.90;;
50309;SDS011;36207;51.850;21.698;2024-02-04T06:35:29;7.30;;;3.00;;
50309;SDS011;36207;51.850;21.698;2024-02-04T06:37:55;8.10;;;3.00;;
50309;SDS011;36207;51.850;21.698;2024-02-04T06:40:21;8.70;;;3.10;;
50309;SDS011;36207;51.850;21.698;2024-02-04T06:42:46;7.70;;;2.60;;
50309;SDS011;36207;51.850;21.698;2024-02-04T06:45:13;8.80;;;2.80;;
50309;SDS011;36207;51.850;21.698;2024-02-04T06:47:39;10.70;;;2.70;;
50309;SDS011;36207;51.850;21.698;2024-02-04T06:50:05;10.90;;;3.20;;
50309;SDS011;36207;51.850;21.698;2024-02-04T06:52:32;10.10;;;2.90;;
50309;SDS011;36207;51.850;21.698;2024-02-04T06:54:58;8.80;;;2.60;;
50309;SDS011;36207;51.850;21.698;2024-02-04T06:57:24;10.50;;;3.00;;
50309;SDS011;36207;51.850;21.698;2024-02-04T06:59:50;11.30;;;3.20;;
50309;SDS011;36207;51.850;21.698;2024-02-04T07:02:16;8.30;;;3.30;;
50309;SDS011;36207;51.850;21.698;2024-02-04T07:04:42;9.50;;;2.80;;
50309;SDS011;36207;51.850;21.698;2024-02-04T07:07:07;9.60;;;2.60;;
50309;SDS011;36207;51.850;21.698;2024-02-04T07:09:33;10.20;;;2.50;;
50309;SDS011;36207;51.850;21.698;2024-02-04T07:11:59;12.80;;;3.70;;
50309;SDS011;36207;51.850;21.698;2024-02-04T07:14:25;10.80;;;2.90;;
50309;SDS011;36207;51.850;21.698;2024-02-04T07:16:51;6.90;;;2.90;;
50309;SDS011;36207;51.850;21.698;2024-02-04T07:19:17;6.60;;;3.10;;
50309;SDS011;36207;51.850;21.698;2024-02-04T07:21:43;9.90;;;3.40;;
50309;SDS011;36207;51.850;21.698;2024-02-04T07:24:10;11.80;;;3.70;;
50309;SDS011;36207;51.850;21.698;2024-02-04T07:26:35;12.50;;;3.50;;
50309;SDS011;36207;51.850;21.698;2024-02-04T07:29:01;12.30;;;3.20;;
50309;SDS011;36207;51.850;21.698;2024-02-04T07:31:27;10.70;;;3.40;;
50309;SDS011;36207;51.850;21.698;2024-02-04T07:33:53;9.70;;;3.50;;
50309;SDS011;36207;51.850;21.698;2024-02-04T07:36:19;13.00;;;3.40;;
50309;SDS011;36207;51.850;21.698;2024-02-04T07:38:45;13.40;;;3.50;;
50309;SDS011;36207;51.850;21.698;2024-02-04T07:41:12;12.80;;;3.70;;
50309;SDS011;36207;51.850;21.698;2024-02-04T07:43:39;11.70;;;3.40;;
50309;SDS011;36207;51.850;21.698;2024-02-04T07:46:05;10.10;;;3.30;;
50309;SDS011;36207;51.850;21.698;2024-02-04T07:48:34;14.80;;;3.40;;
50309;SDS011;36207;51.850;21.698;2024-02-04T07:50:59;13.70;;;3.70;;
50309;SDS011;36207;51.850;21.698;2024-02-04T07:53:25;14.40;;;3.70;;
50309;SDS011;36207;51.850;21.698;2024-02-04T07:55:51;11.30;;;4.00;;
50309;SDS011;36207;51.850;21.698;2024-02-04T07:58:17;13.40;;;3.60;;
50309;SDS011;36207;51.850;21.698;2024-02-04T08:00:43;12.80;;;3.50;;
50309;SDS011;36207;51.850;21.698;2024-02-04T08:03:09;13.80;;;3.40;;
50309;SDS011;36207;51.850;21.698;2024-02-04T08:05:35;11.10;;;3.10;;
50309;SDS011;36207;51.850;21.698;2024-02-04T08:08:01;9.00;;;3.00;;
50309;SDS011;36207;51.850;21.698;2024-02-04T08:10:27;16.60;;;4.30;;
50309;SDS011;36207;51.850;21.698;2024-02-04T08:12:53;13.50;;;3.20;;
50309;SDS011;36207;51.850;21.698;2024-02-04T08:15:19;12.90;;;3.60;;
50309;SDS011;36207;51.850;21.698;2024-02-04T08:17:46;10.20;;;3.70;;
50309;SDS011;36207;51.850;21.698;2024-02-04T08:20:12;12.60;;;3.40;;
50309;SDS011;36207;51.850;21.698;2024-02-04T08:22:38;14.40;;;3.30;;
50309;SDS011;36207;51.850;21.698;2024-02-04T08:25:04;14.70;;;3.50;;
50309;SDS011;36207;51.850;21.698;2024-02-04T08:27:31;8.70;;;3.20;;
50309;SDS011;36207;51.850;21.698;2024-02-04T08:29:57;10.30;;;3.20;;
50309;SDS011;36207;51.850;21.698;2024-02-04T08:32:23;7.80;;;3.00;;
50309;SDS011;36207;51.850;21.698;2024-02-04T08:34:49;11.70;;;2.90;;
50309;SDS011;36207;51.850;21.698;2024-02-04T08:37:15;13.20;;;3.20;;
50309;SDS011;36207;51.850;21.698;2024-02-04T08:39:41;12.80;;;3.50;;
50309;SDS011;36207;51.850;21.698;2024-02-04T08:42:07;10.20;;;3.20;;
50309;SDS011;36207;51.850;21.698;2024-02-04T08:44:33;9.80;;;3.20;;
50309;SDS011;36207;51.850;21.698;2024-02-04T08:46:58;12.60;;;3.30;;
50309;SDS011;36207;51.850;21.698;2024-02-04T08:49:25;11.70;;;3.30;;
50309;SDS011;36207;51.850;21.698;2024-02-04T08:51:51;10.20;;;3.50;;
50309;SDS011;36207;51.850;21.698;2024-02-04T08:54:17;12.80;;;3.50;;
50309;SDS011;36207;51.850;21.698;2024-02-04T08:56:43;13.60;;;3.60;;
50309;SDS011;36207;51.850;21.698;2024-02-04T08:59:09;11.10;;;3.40;;
50309;SDS011;36207;51.850;21.698;2024-02-04T09:01:35;10.50;;;3.20;;
50309;SDS011;36207;51.850;21.698;2024-02-04T09:04:01;10.90;;;3.50;;
50309;SDS011;36207;51.850;21.698;2024-02-04T09:06:27;9.40;;;3.30;;
50309;SDS011;36207;51.850;21.698;2024-02-04T09:08:53;12.40;;;3.70;;
50309;SDS011;36207;51.850;21.698;2024-02-04T09:11:19;10.70;;;3.40;;
50309;SDS011;36207;51.850;21.698;2024-02-04T09:13:46;15.10;;;3.80;;
50309;SDS011;36207;51.850;21.698;2024-02-04T09:16:12;15.70;;;3.80;;
50309;SDS011;36207;51.850;21.698;2024-02-04T09:18:38;10.00;;;3.10;;
50309;SDS011;36207;51.850;21.698;2024-02-04T09:21:04;14.10;;;3.80;;
50309;SDS011;36207;51.850;21.698;2024-02-04T09:23:30;13.80;;;3.80;;
50309;SDS011;36207;51.850;21.698;2024-02-04T09:25:56;10.70;;;3.40;;
50309;SDS011;36207;51.850;21.698;2024-02-04T09:28:22;11.40;;;3.40;;
50309;SDS011;36207;51.850;21.698;2024-02-04T09:30:48;11.50;;;3.60;;
50309;SDS011;36207;51.850;21.698;2024-02-04T09:33:14;9.90;;;3.20;;
50309;SDS011;36207;51.850;21.698;2024-02-04T09:35:40;9.80;;;3.60;;
50309;SDS011;36207;51.850;21.698;2024-02-04T09:38:06;12.40;;;3.50;;
50309;SDS011;36207;51.850;21.698;2024-02-04T09:40:32;9.80;;;3.60;;
50309;SDS011;36207;51.850;21.698;2024-02-04T09:42:59;12.70;;;3.60;;
50309;SDS011;36207;51.850;21.698;2024-02-04T09:45:26;13.20;;;3.90;;
50309;SDS011;36207;51.850;21.698;2024-02-04T09:47:53;9.40;;;3.40;;
50309;SDS011;36207;51.850;21.698;2024-02-04T09:50:20;9.50;;;3.30;;
50309;SDS011;36207;51.850;21.698;2024-02-04T09:52:48;8.10;;;3.10;;
50309;SDS011;36207;51.850;21.698;2024-02-04T09:55:19;11.00;;;3.60;;
50309;SDS011;36207;51.850;21.698;2024-02-04T09:57:49;10.60;;;3.30;;
50309;SDS011;36207;51.850;21.698;2024-02-04T10:00:15;7.60;;;3.00;;
50309;SDS011;36207;51.850;21.698;2024-02-04T10:02:45;10.10;;;3.10;;
50309;SDS011;36207;51.850;21.698;2024-02-04T10:05:12;10.50;;;3.00;;
50309;SDS011;36207;51.850;21.698;2024-02-04T10:07:38;10.20;;;3.00;;
50309;SDS011;36207;51.850;21.698;2024-02-04T10:10:06;11.90;;;3.30;;
50309;SDS011;36207;51.850;21.698;2024-02-04T10:12:35;12.70;;;3.50;;
50309;SDS011;36207;51.850;21.698;2024-02-04T10:15:03;13.00;;;3.30;;
50309;SDS011;36207;51.850;21.698;2024-02-04T10:17:31;11.10;;;3.30;;
50309;SDS011;36207;51.850;21.698;2024-02-04T10:19:57;8.40;;;2.80;;
50309;SDS011;36207;51.850;21.698;2024-02-04T10:22:25;9.70;;;3.40;;
50309;SDS011;36207;51.850;21.698;2024-02-04T10:24:52;10.00;;;3.10;;
50309;SDS011;36207;51.850;21.698;2024-02-04T10:27:19;13.60;;;3.20;;
50309;SDS011;36207;51.850;21.698;2024-02-04T10:29:45;9.70;;;3.00;;
50309;SDS011;36207;51.850;21.698;2024-02-04T10:32:11;11.00;;;3.20;;
50309;SDS011;36207;51.850;21.698;2024-02-04T10:34:38;10.20;;;3.20;;
50309;SDS011;36207;51.850;21.698;2024-02-04T10:37:05;12.20;;;3.80;;
50309;SDS011;36207;51.850;21.698;2024-02-04T10:39:31;9.60;;;3.30;;
50309;SDS011;36207;51.850;21.698;2024-02-04T10:41:59;9.60;;;2.90;;
50309;SDS011;36207;51.850;21.698;2024-02-04T10:44:35;8.10;;;3.10;;
50309;SDS011;36207;51.850;21.698;2024-02-04T10:47:07;9.70;;;3.20;;
50309;SDS011;36207;51.850;21.698;2024-02-04T10:49:36;13.10;;;3.50;;
50309;SDS011;36207;51.850;21.698;2024-02-04T10:52:06;11.80;;;3.50;;
50309;SDS011;36207;51.850;21.698;2024-02-04T10:54:34;9.40;;;3.40;;
50309;SDS011;36207;51.850;21.698;2024-02-04T10:57:03;12.20;;;3.40;;
50309;SDS011;36207;51.850;21.698;2024-02-04T10:59:35;11.70;;;4.20;;
50309;SDS011;36207;51.850;21.698;2024-02-04T11:02:02;12.10;;;4.00;;
50309;SDS011;36207;51.850;21.698;2024-02-04T11:04:32;13.80;;;3.90;;
50309;SDS011;36207;51.850;21.698;2024-02-04T11:07:00;11.10;;;3.60;;
50309;SDS011;36207;51.850;21.698;2024-02-04T11:09:27;13.90;;;3.90;;
50309;SDS011;36207;51.850;21.698;2024-02-04T11:11:53;10.00;;;3.60;;
50309;SDS011;36207;51.850;21.698;2024-02-04T11:14:24;10.10;;;3.30;;
50309;SDS011;36207;51.850;21.698;2024-02-04T11:27:52;10.50;;;3.30;;
50309;SDS011;36207;51.850;21.698;2024-02-04T11:30:18;13.30;;;3.60;;
50309;SDS011;36207;51.850;21.698;2024-02-04T11:32:45;11.90;;;3.70;;
50309;SDS011;36207;51.850;21.698;2024-02-04T11:35:12;12.20;;;3.70;;
50309;SDS011;36207;51.850;21.698;2024-02-04T11:37:38;13.70;;;3.80;;
50309;SDS011;36207;51.850;21.698;2024-02-04T11:40:07;12.00;;;3.80;;
50309;SDS011;36207;51.850;21.698;2024-02-04T11:42:41;12.90;;;3.90;;
50309;SDS011;36207;51.850;21.698;2024-02-04T11:45:07;11.90;;;4.00;;
50309;SDS011;36207;51.850;21.698;2024-02-04T11:47:34;11.20;;;3.80;;
50309;SDS011;36207;51.850;21.698;2024-02-04T11:50:03;11.40;;;3.50;;
50309;SDS011;36207;51.850;21.698;2024-02-04T11:52:29;10.60;;;3.70;;
50309;SDS011;36207;51.850;21.698;2024-02-04T11:54:55;13.50;;;3.70;;
50309;SDS011;36207;51.850;21.698;2024-02-04T11:57:21;9.50;;;3.60;;
50309;SDS011;36207;51.850;21.698;2024-02-04T11:59:48;12.60;;;3.60;;
50309;SDS011;36207;51.850;21.698;2024-02-04T12:02:16;10.60;;;3.60;;
50309;SDS011;36207;51.850;21.698;2024-02-04T12:04:46;9.50;;;3.30;;
50309;SDS011;36207;51.850;21.698;2024-02-04T12:07:14;12.60;;;4.00;;
50309;SDS011;36207;51.850;21.698;2024-02-04T12:09:40;11.00;;;3.70;;
50309;SDS011;36207;51.850;21.698;2024-02-04T12:12:08;12.00;;;3.80;;
50309;SDS011;36207;51.850;21.698;2024-02-04T12:14:37;13.50;;;3.90;;
50309;SDS011;36207;51.850;21.698;2024-02-04T12:17:08;13.60;;;4.20;;
50309;SDS011;36207;51.850;21.698;2024-02-04T12:19:36;17.10;;;4.60;;
50309;SDS011;36207;51.850;21.698;2024-02-04T12:22:02;12.40;;;4.30;;
50309;SDS011;36207;51.850;21.698;2024-02-04T12:24:35;14.50;;;4.50;;
50309;SDS011;36207;51.850;21.698;2024-02-04T12:27:03;10.60;;;4.20;;
50309;SDS011;36207;51.850;21.698;2024-02-04T12:29:30;11.80;;;4.20;;
50309;SDS011;36207;51.850;21.698;2024-02-04T12:32:03;11.20;;;4.10;;
50309;SDS011;36207;51.850;21.698;2024-02-04T12:34:31;11.40;;;4.80;;
50309;SDS011;36207;51.850;21.698;2024-02-04T12:37:00;14.20;;;5.00;;
50309;SDS011;36207;51.850;21.698;2024-02-04T12:39:27;12.80;;;4.60;;
50309;SDS011;36207;51.850;21.698;2024-02-04T12:41:53;12.70;;;5.30;;
50309;SDS011;36207;51.850;21.698;2024-02-04T12:44:19;12.70;;;5.50;;
50309;SDS011;36207;51.850;21.698;2024-02-04T12:46:49;18.30;;;6.50;;
50309;SDS011;36207;51.850;21.698;2024-02-04T12:49:20;14.30;;;5.90;;
50309;SDS011;36207;51.850;21.698;2024-02-04T12:51:50;14.00;;;5.90;;
50309;SDS011;36207;51.850;21.698;2024-02-04T12:54:21;12.20;;;6.00;;
50309;SDS011;36207;51.850;21.698;2024-02-04T12:56:54;14.50;;;6.00;;
50309;SDS011;36207;51.850;21.698;2024-02-04T12:59:23;16.50;;;6.80;;
50309;SDS011;36207;51.850;21.698;2024-02-04T13:04:22;16.50;;;6.90;;
50309;SDS011;36207;51.850;21.698;2024-02-04T13:06:48;14.20;;;6.30;;
50309;SDS011;36207;51.850;21.698;2024-02-04T13:09:15;14.00;;;6.60;;
50309;SDS011;36207;51.850;21.698;2024-02-04T13:11:41;16.80;;;7.00;;
50309;SDS011;36207;51.850;21.698;2024-02-04T13:14:10;15.50;;;7.00;;
50309;SDS011;36207;51.850;21.698;2024-02-04T13:16:39;18.10;;;7.40;;
50309;SDS011;36207;51.850;21.698;2024-02-04T13:19:05;13.80;;;6.70;;
50309;SDS011;36207;51.850;21.698;2024-02-04T13:21:32;15.10;;;6.60;;
50309;SDS011;36207;51.850;21.698;2024-02-04T13:23:57;14.50;;;7.00;;
50309;SDS011;36207;51.850;21.698;2024-02-04T13:26:23;17.30;;;7.30;;
50309;SDS011;36207;51.850;21.698;2024-02-04T13:28:50;12.60;;;6.60;;
50309;SDS011;36207;51.850;21.698;2024-02-04T13:31:16;16.10;;;7.50;;
50309;SDS011;36207;51.850;21.698;2024-02-04T13:33:42;15.60;;;7.10;;
50309;SDS011;36207;51.850;21.698;2024-02-04T13:36:07;23.90;;;7.70;;
50309;SDS011;36207;51.850;21.698;2024-02-04T13:38:34;17.70;;;7.00;;
50309;SDS011;36207;51.850;21.698;2024-02-04T13:41:01;14.40;;;6.40;;
50309;SDS011;36207;51.850;21.698;2024-02-04T13:43:32;17.00;;;6.80;;
50309;SDS011;36207;51.850;21.698;2024-02-04T13:46:01;13.90;;;6.90;;
50309;SDS011;36207;51.850;21.698;2024-02-04T13:48:27;18.80;;;7.30;;
50309;SDS011;36207;51.850;21.698;2024-02-04T13:50:53;16.80;;;6.80;;
50309;SDS011;36207;51.850;21.698;2024-02-04T13:53:20;18.80;;;6.70;;
50309;SDS011;36207;51.850;21.698;2024-02-04T13:55:47;15.20;;;6.70;;
50309;SDS011;36207;51.850;21.698;2024-02-04T13:58:16;15.50;;;6.40;;
50309;SDS011;36207;51.850;21.698;2024-02-04T14:00:44;13.10;;;6.00;;
50309;SDS011;36207;51.850;21.698;2024-02-04T14:03:09;13.80;;;6.50;;
50309;SDS011;36207;51.850;21.698;2024-02-04T14:05:38;14.10;;;6.00;;
50309;SDS011;36207;51.850;21.698;2024-02-04T14:08:06;10.90;;;5.80;;
50309;SDS011;36207;51.850;21.698;2024-02-04T14:10:32;18.80;;;6.50;;
50309;SDS011;36207;51.850;21.698;2024-02-04T14:12:58;14.30;;;6.00;;
50309;SDS011;36207;51.850;21.698;2024-02-04T14:15:24;14.50;;;6.00;;
50309;SDS011;36207;51.850;21.698;2024-02-04T14:17:51;15.10;;;6.50;;
50309;SDS011;36207;51.850;21.698;2024-02-04T14:20:17;14.50;;;6.10;;
50309;SDS011;36207;51.850;21.698;2024-02-04T14:22:42;14.60;;;6.20;;
50309;SDS011;36207;51.850;21.698;2024-02-04T14:25:08;17.90;;;6.30;;
50309;SDS011;36207;51.850;21.698;2024-02-04T14:27:34;13.10;;;6.10;;
50309;SDS011;36207;51.850;21.698;2024-02-04T14:30:02;15.70;;;6.20;;
50309;SDS011;36207;51.850;21.698;2024-02-04T14:32:29;13.10;;;6.30;;
50309;SDS011;36207;51.850;21.698;2024-02-04T14:34:54;15.30;;;6.10;;
50309;SDS011;36207;51.850;21.698;2024-02-04T14:37:20;14.40;;;6.10;;
50309;SDS011;36207;51.850;21.698;2024-02-04T14:39:46;13.90;;;5.90;;